| time (UTC) | temp F | wind direction | speed MPH | gust MPH | rain 1hr in | rain 24hr in | rain mn in | humidity % | barometer mb |
| 20260510231704 | 69 | 46 | 1.0 | 5.0 | 0.00 | 0.00 | 0.00 | 42 | 1017.6 |
| 20260510231204 | 69 | 59 | 2.0 | 7.0 | 0.00 | 0.00 | 0.00 | 42 | 1017.6 |
| 20260510224704 | 70 | 12 | 3.0 | 7.0 | 0.00 | 0.00 | 0.00 | 43 | 1017.6 |
| 20260510224204 | 70 | 53 | 2.0 | 9.0 | 0.00 | 0.00 | 0.00 | 43 | 1017.4 |
| 20260510223704 | 71 | 21 | 2.0 | 5.0 | 0.00 | 0.00 | 0.00 | 42 | 1017.4 |
| 20260510222704 | 71 | 8 | 2.0 | 7.0 | 0.00 | 0.00 | 0.00 | 43 | 1017.1 |
| 20260510222204 | 71 | 64 | 2.0 | 5.0 | 0.00 | 0.00 | 0.00 | 44 | 1017.1 |
| 20260510221705 | 71 | 19 | 4.0 | 9.0 | 0.00 | 0.00 | 0.00 | 41 | 1017.1 |
| 20260510221204 | 72 | 65 | 2.0 | 8.0 | 0.00 | 0.00 | 0.00 | 41 | 1017.0 |
| 20260510220705 | 72 | 56 | 5.0 | 9.0 | 0.00 | 0.00 | 0.00 | 41 | 1017.0 |
| 20260510220204 | 72 | 328 | 2.0 | 6.0 | 0.00 | 0.00 | 0.00 | 43 | 1017.2 |
| 20260510215704 | 72 | 48 | 1.0 | 6.0 | 0.00 | 0.00 | 0.00 | 42 | 1017.2 |
| 20260510215204 | 72 | 20 | 2.0 | 7.0 | 0.00 | 0.00 | 0.00 | 44 | 1017.3 |
| 20260510214704 | 72 | 301 | 2.0 | 8.0 | 0.00 | 0.00 | 0.00 | 41 | 1017.3 |
| 20260510213704 | 72 | 44 | 2.0 | 7.0 | 0.00 | 0.00 | 0.00 | 45 | 1017.3 |
| 20260510213204 | 72 | 54 | 3.0 | 12.0 | 0.00 | 0.00 | 0.00 | 43 | 1017.2 |
| 20260510212704 | 72 | 301 | 3.0 | 9.0 | 0.00 | 0.00 | 0.00 | 46 | 1017.3 |
| 20260510211704 | 72 | 289 | 4.0 | 9.0 | 0.00 | 0.00 | 0.00 | 45 | 1017.3 |
| 20260510210705 | 72 | 23 | 3.0 | 6.0 | 0.00 | 0.00 | 0.00 | 45 | 1017.1 |
| 20260510210204 | 72 | 23 | 3.0 | 8.0 | 0.00 | 0.00 | 0.00 | 45 | 1017.2 |
| 20260510205204 | 72 | 18 | 2.0 | 7.0 | 0.00 | 0.00 | 0.00 | 44 | 1017.1 |
| 20260510204704 | 72 | 42 | 2.0 | 7.0 | 0.00 | 0.00 | 0.00 | 46 | 1017.2 |
| 20260510204205 | 73 | 56 | 3.0 | 6.0 | 0.00 | 0.00 | 0.00 | 45 | 1017.2 |
| 20260510203704 | 72 | 353 | 2.0 | 6.0 | 0.00 | 0.00 | 0.00 | 45 | 1017.2 |
| 20260510203204 | 72 | 94 | 2.0 | 5.0 | 0.00 | 0.00 | 0.00 | 47 | 1017.3 |
| 20260510202704 | 72 | 58 | 3.0 | 8.0 | 0.00 | 0.00 | 0.00 | 46 | 1017.3 |
| 20260510202205 | 72 | 33 | 2.0 | 9.0 | 0.00 | 0.00 | 0.00 | 45 | 1017.4 |
| 20260510201704 | 72 | 47 | 3.0 | 8.0 | 0.00 | 0.00 | 0.00 | 44 | 1017.5 |
| 20260510201204 | 72 | 63 | 2.0 | 8.0 | 0.00 | 0.00 | 0.00 | 45 | 1017.5 |
| 20260510200704 | 73 | 59 | 3.0 | 9.0 | 0.00 | 0.00 | 0.00 | 46 | 1017.4 |
| 20260510200204 | 73 | 334 | 3.0 | 10.0 | 0.00 | 0.00 | 0.00 | 45 | 1017.3 |
| 20260510195704 | 73 | 50 | 2.0 | 3.0 | 0.00 | 0.00 | 0.00 | 45 | 1017.2 |
| 20260510195204 | 72 | 83 | 3.0 | 7.0 | 0.00 | 0.00 | 0.00 | 44 | 1017.3 |
| 20260510194204 | 73 | 61 | 3.0 | 10.0 | 0.00 | 0.00 | 0.00 | 44 | 1017.2 |
| 20260510193704 | 73 | 67 | 3.0 | 9.0 | 0.00 | 0.00 | 0.00 | 44 | 1017.2 |
| 20260510193204 | 73 | 333 | 1.0 | 8.0 | 0.00 | 0.00 | 0.00 | 48 | 1017.2 |
| 20260510192704 | 72 | 308 | 3.0 | 9.0 | 0.00 | 0.00 | 0.00 | 46 | 1017.3 |
| 20260510192204 | 73 | 66 | 3.0 | 9.0 | 0.00 | 0.00 | 0.00 | 46 | 1017.3 |
| 20260510191704 | 73 | 55 | 3.0 | 8.0 | 0.00 | 0.00 | 0.00 | 46 | 1017.3 |
| 20260510191204 | 72 | 300 | 5.0 | 12.0 | 0.00 | 0.00 | 0.00 | 47 | 1017.5 |
| 20260510190705 | 72 | 37 | 3.0 | 6.0 | 0.00 | 0.00 | 0.00 | 45 | 1017.4 |
| 20260510190204 | 72 | 64 | 5.0 | 9.0 | 0.00 | 0.00 | 0.00 | 45 | 1017.3 |
| 20260510184704 | 72 | 68 | 3.0 | 10.0 | 0.00 | 0.00 | 0.00 | 50 | 1017.4 |
| 20260510184204 | 72 | 47 | 3.0 | 7.0 | 0.00 | 0.00 | 0.00 | 50 | 1017.4 |
| 20260510183704 | 72 | 62 | 2.0 | 9.0 | 0.00 | 0.00 | 0.00 | 50 | 1017.4 |
| 20260510183205 | 72 | 49 | 5.0 | 13.0 | 0.00 | 0.00 | 0.00 | 50 | 1017.4 |
| 20260510182204 | 71 | 25 | 2.0 | 7.0 | 0.00 | 0.00 | 0.00 | 49 | 1017.3 |
| 20260510181704 | 71 | 66 | 2.0 | 9.0 | 0.00 | 0.00 | 0.00 | 48 | 1017.2 |
| 20260510181204 | 71 | 55 | 5.0 | 12.0 | 0.00 | 0.00 | 0.00 | 46 | 1017.3 |
| 20260510180705 | 71 | 47 | 3.0 | 8.0 | 0.00 | 0.00 | 0.00 | 46 | 1017.3 |
| 20260510180204 | 71 | 65 | 4.0 | 9.0 | 0.00 | 0.00 | 0.00 | 47 | 1017.3 |
| 20260510175704 | 71 | 40 | 5.0 | 12.0 | 0.00 | 0.00 | 0.00 | 45 | 1017.3 |
| 20260510175204 | 71 | 40 | 5.0 | 8.0 | 0.00 | 0.00 | 0.00 | 47 | 1017.3 |
| 20260510174704 | 71 | 356 | 3.0 | 10.0 | 0.00 | 0.00 | 0.00 | 46 | 1017.3 |
| 20260510173703 | 71 | 46 | 5.0 | 12.0 | 0.00 | 0.00 | 0.00 | 45 | 1017.2 |
| 20260510173204 | 71 | 60 | 7.0 | 14.0 | 0.00 | 0.00 | 0.00 | 44 | 1017.3 |
| 20260510172704 | 71 | 39 | 4.0 | 12.0 | 0.00 | 0.00 | 0.00 | 45 | 1017.2 |
| 20260510171204 | 71 | 25 | 4.0 | 8.0 | 0.00 | 0.00 | 0.00 | 48 | 1017.2 |
| 20260510170704 | 70 | 71 | 5.0 | 9.0 | 0.00 | 0.00 | 0.00 | 48 | 1017.3 |
| 20260510170204 | 70 | 64 | 3.0 | 8.0 | 0.00 | 0.00 | 0.00 | 51 | 1017.4 |
| 20260510165704 | 70 | 28 | 3.0 | 8.0 | 0.00 | 0.00 | 0.00 | 48 | 1017.4 |
| 20260510165204 | 70 | 62 | 4.0 | 12.0 | 0.00 | 0.00 | 0.00 | 50 | 1017.5 |
| 20260510164705 | 69 | 306 | 4.0 | 10.0 | 0.00 | 0.00 | 0.00 | 53 | 1017.6 |
| 20260510163704 | 70 | 76 | 3.0 | 8.0 | 0.00 | 0.00 | 0.00 | 51 | 1017.6 |
| 20260510162704 | 70 | 311 | 4.0 | 9.0 | 0.00 | 0.00 | 0.00 | 54 | 1017.6 |
| 20260510162204 | 70 | 51 | 4.0 | 12.0 | 0.00 | 0.00 | 0.00 | 54 | 1017.7 |
| 20260510161704 | 69 | 43 | 3.0 | 9.0 | 0.00 | 0.00 | 0.00 | 56 | 1017.6 |
| 20260510161204 | 69 | 71 | 5.0 | 9.0 | 0.00 | 0.00 | 0.00 | 56 | 1017.5 |
| 20260510160704 | 69 | 50 | 2.0 | 8.0 | 0.00 | 0.00 | 0.00 | 60 | 1017.4 |
| 20260510160203 | 68 | 29 | 2.0 | 7.0 | 0.00 | 0.00 | 0.00 | 63 | 1017.4 |
| 20260510155204 | 67 | 40 | 4.0 | 10.0 | 0.00 | 0.00 | 0.00 | 63 | 1017.3 |
| 20260510154704 | 67 | 26 | 1.0 | 9.0 | 0.00 | 0.00 | 0.00 | 65 | 1017.2 |
| 20260510153204 | 66 | 35 | 3.0 | 9.0 | 0.00 | 0.00 | 0.00 | 66 | 1017.1 |
| 20260510152704 | 66 | 67 | 6.0 | 9.0 | 0.00 | 0.00 | 0.00 | 67 | 1017.1 |
| 20260510151704 | 67 | 302 | 4.0 | 9.0 | 0.00 | 0.00 | 0.00 | 69 | 1016.9 |
| 20260510151205 | 66 | 55 | 2.0 | 8.0 | 0.00 | 0.00 | 0.00 | 73 | 1016.9 |
| 20260510150704 | 65 | 313 | 2.0 | 7.0 | 0.00 | 0.00 | 0.00 | 72 | 1016.9 |
| 20260510150204 | 65 | 317 | 3.0 | 9.0 | 0.00 | 0.00 | 0.00 | 72 | 1016.8 |
| 20260510145704 | 65 | 47 | 4.0 | 8.0 | 0.00 | 0.00 | 0.00 | 72 | 1016.7 |
| 20260510145204 | 65 | 55 | 1.0 | 6.0 | 0.00 | 0.00 | 0.00 | 73 | 1016.6 |
| 20260510144704 | 65 | 6 | 2.0 | 5.0 | 0.00 | 0.00 | 0.00 | 73 | 1016.6 |
| 20260510144204 | 65 | 54 | 2.0 | 5.0 | 0.00 | 0.00 | 0.00 | 72 | 1016.6 |
| 20260510143704 | 65 | 6 | 1.0 | 5.0 | 0.00 | 0.00 | 0.00 | 72 | 1016.5 |
| 20260510143204 | 65 | 39 | 4.0 | 8.0 | 0.00 | 0.00 | 0.00 | 70 | 1016.4 |
| 20260510142704 | 66 | 59 | 4.0 | 9.0 | 0.00 | 0.00 | 0.00 | 71 | 1016.3 |
| 20260510142205 | 66 | 46 | 2.0 | 3.0 | 0.00 | 0.00 | 0.00 | 73 | 1016.3 |
| 20260510141704 | 66 | 349 | 3.0 | 10.0 | 0.00 | 0.00 | 0.00 | 74 | 1016.2 |
| 20260510141204 | 66 | 280 | 2.0 | 9.0 | 0.00 | 0.00 | 0.00 | 75 | 1016.0 |
| 20260510140704 | 65 | 52 | 2.0 | 5.0 | 0.00 | 0.00 | 0.00 | 74 | 1015.9 |
| 20260510135704 | 65 | 346 | 2.0 | 6.0 | 0.00 | 0.00 | 0.00 | 73 | 1015.9 |
| 20260510135205 | 65 | 212 | 2.0 | 6.0 | 0.00 | 0.00 | 0.00 | 74 | 1015.8 |
| 20260510134704 | 65 | 62 | 3.0 | 7.0 | 0.00 | 0.00 | 0.00 | 73 | 1015.7 |
| 20260510134204 | 65 | 322 | 2.0 | 8.0 | 0.00 | 0.00 | 0.00 | 74 | 1015.7 |
| 20260510133705 | 65 | 39 | 3.0 | 9.0 | 0.00 | 0.00 | 0.00 | 75 | 1015.8 |
| 20260510132704 | 65 | 26 | 4.0 | 12.0 | 0.00 | 0.00 | 0.00 | 77 | 1015.7 |
| 20260510132204 | 65 | 37 | 3.0 | 8.0 | 0.00 | 0.00 | 0.00 | 77 | 1015.7 |
| 20260510131204 | 64 | 301 | 2.0 | 8.0 | 0.00 | 0.00 | 0.00 | 81 | 1015.5 |
| 20260510130704 | 64 | 2 | 2.0 | 5.0 | 0.00 | 0.00 | 0.00 | 83 | 1015.5 |
| 20260510130204 | 64 | 344 | 2.0 | 7.0 | 0.00 | 0.00 | 0.00 | 83 | 1015.5 |
| 20260510125704 | 64 | 317 | 2.0 | 8.0 | 0.00 | 0.00 | 0.00 | 84 | 1015.2 |
| 20260510125204 | 63 | 30 | 2.0 | 3.0 | 0.00 | 0.01 | 0.00 | 85 | 1015.0 |
| 20260510124705 | 63 | 332 | 2.0 | 7.0 | 0.00 | 0.01 | 0.00 | 85 | 1015.0 |
| 20260510124204 | 63 | 311 | 1.0 | 8.0 | 0.00 | 0.01 | 0.00 | 85 | 1015.0 |
| 20260510122704 | 62 | 298 | 2.0 | 6.0 | 0.00 | 0.01 | 0.00 | 86 | 1015.0 |
| 20260510122204 | 62 | 336 | 0.0 | 2.0 | 0.00 | 0.01 | 0.00 | 86 | 1014.6 |
| 20260510121704 | 62 | 296 | 1.0 | 2.0 | 0.00 | 0.01 | 0.00 | 86 | 1014.8 |
| 20260510121204 | 61 | 321 | 1.0 | 3.0 | 0.00 | 0.01 | 0.00 | 87 | 1014.6 |
| 20260510120704 | 61 | 299 | 0.0 | 0.0 | 0.00 | 0.01 | 0.00 | 87 | 1014.4 |
| 20260510120205 | 61 | 299 | 1.0 | 2.0 | 0.00 | 0.01 | 0.00 | 86 | 1014.3 |
| 20260510115704 | 61 | 299 | 0.0 | 1.0 | 0.00 | 0.01 | 0.00 | 86 | 1014.4 |
| 20260510115205 | 61 | 298 | 0.0 | 1.0 | 0.00 | 0.01 | 0.00 | 86 | 1014.4 |
| 20260510114705 | 60 | 298 | 0.0 | 1.0 | 0.00 | 0.01 | 0.00 | 86 | 1014.2 |
| 20260510114204 | 60 | 298 | 0.0 | 1.0 | 0.00 | 0.01 | 0.00 | 85 | 1014.1 |
| 20260510113704 | 60 | 298 | 0.0 | 1.0 | 0.00 | 0.01 | 0.00 | 85 | 1014.0 |
| 20260510113204 | 60 | 298 | 0.0 | 2.0 | 0.00 | 0.01 | 0.00 | 85 | 1014.0 |
| 20260510112704 | 60 | 294 | 1.0 | 2.0 | 0.00 | 0.01 | 0.00 | 85 | 1013.9 |
| 20260510112205 | 60 | 333 | 1.0 | 2.0 | 0.00 | 0.01 | 0.00 | 85 | 1013.8 |
| 20260510111703 | 60 | 49 | 1.0 | 2.0 | 0.00 | 0.01 | 0.00 | 84 | 1013.6 |
| 20260510111204 | 60 | 305 | 0.0 | 1.0 | 0.00 | 0.01 | 0.00 | 84 | 1013.7 |
| 20260510110704 | 59 | 305 | 0.0 | 0.0 | 0.00 | 0.01 | 0.00 | 84 | 1013.5 |
| 20260510110204 | 59 | 305 | 0.0 | 1.0 | 0.00 | 0.01 | 0.00 | 83 | 1013.3 |
| 20260510105204 | 59 | 318 | 0.0 | 2.0 | 0.00 | 0.01 | 0.00 | 84 | 1013.1 |
| 20260510104704 | 59 | 296 | 0.0 | 2.0 | 0.00 | 0.01 | 0.00 | 84 | 1013.0 |
| 20260510104204 | 59 | 291 | 0.0 | 1.0 | 0.00 | 0.01 | 0.00 | 83 | 1012.8 |
| 20260510103704 | 59 | 290 | 1.0 | 2.0 | 0.00 | 0.01 | 0.00 | 84 | 1012.9 |
| 20260510103204 | 59 | 309 | 1.0 | 2.0 | 0.00 | 0.01 | 0.00 | 84 | 1012.8 |
| 20260510102204 | 59 | 92 | 0.0 | 1.0 | 0.00 | 0.01 | 0.00 | 83 | 1012.3 |
| 20260510101704 | 59 | 92 | 0.0 | 1.0 | 0.00 | 0.01 | 0.00 | 83 | 1012.2 |
| 20260510101204 | 59 | 92 | 0.0 | 0.0 | 0.00 | 0.01 | 0.00 | 83 | 1012.1 |
| 20260510100704 | 59 | 92 | 0.0 | 1.0 | 0.00 | 0.01 | 0.00 | 83 | 1012.1 |
| 20260510100204 | 59 | 92 | 0.0 | 1.0 | 0.00 | 0.01 | 0.00 | 82 | 1012.1 |
| 20260510095704 | 59 | 92 | 0.0 | 0.0 | 0.00 | 0.01 | 0.00 | 82 | 1012.2 |
| 20260510094704 | 59 | 92 | 1.0 | 2.0 | 0.00 | 0.01 | 0.00 | 82 | 1012.3 |
| 20260510094204 | 59 | 92 | 1.0 | 3.0 | 0.00 | 0.01 | 0.00 | 82 | 1012.3 |
| 20260510093704 | 59 | 265 | 1.0 | 3.0 | 0.00 | 0.01 | 0.00 | 82 | 1012.5 |
| 20260510093204 | 59 | 277 | 1.0 | 2.0 | 0.00 | 0.01 | 0.00 | 82 | 1012.3 |
| 20260510092704 | 59 | 277 | 2.0 | 3.0 | 0.00 | 0.01 | 0.00 | 82 | 1012.5 |
| 20260510091704 | 59 | 0 | 0.0 | 2.0 | 0.00 | 0.01 | 0.00 | 81 | 1012.3 |
| 20260510091203 | 59 | 5 | 0.0 | 2.0 | 0.00 | 0.01 | 0.00 | 81 | 1012.2 |
| 20260510090705 | 59 | 350 | 1.0 | 3.0 | 0.00 | 0.01 | 0.00 | 80 | 1012.2 |
| 20260510090204 | 60 | 290 | 0.0 | 1.0 | 0.00 | 0.01 | 0.00 | 80 | 1012.3 |
| 20260510085704 | 60 | 290 | 1.0 | 2.0 | 0.00 | 0.01 | 0.00 | 79 | 1012.4 |
| 20260510085204 | 60 | 290 | 1.0 | 2.0 | 0.00 | 0.01 | 0.00 | 78 | 1012.3 |
| 20260510084704 | 60 | 290 | 0.0 | 0.0 | 0.00 | 0.01 | 0.00 | 77 | 1012.2 |
| 20260510083704 | 61 | 297 | 1.0 | 2.0 | 0.00 | 0.01 | 0.00 | 76 | 1012.1 |
| 20260510083204 | 61 | 5 | 0.0 | 0.0 | 0.00 | 0.01 | 0.00 | 75 | 1012.1 |
| 20260510082704 | 61 | 0 | 0.0 | 0.0 | 0.00 | 0.01 | 0.00 | 76 | 1012.0 |
| 20260510081704 | 62 | 53 | 2.0 | 3.0 | 0.00 | 0.01 | 0.00 | 74 | 1012.0 |
| 20260510081204 | 62 | 53 | 0.0 | 0.0 | 0.00 | 0.01 | 0.00 | 73 | 1012.1 |
| 20260510080704 | 62 | 53 | 0.0 | 1.0 | 0.00 | 0.01 | 0.00 | 73 | 1012.2 |
| 20260510080204 | 63 | 53 | 0.0 | 0.0 | 0.00 | 0.01 | 0.00 | 72 | 1012.2 |
| 20260510075705 | 63 | 53 | 0.0 | 0.0 | 0.00 | 0.01 | 0.00 | 72 | 1012.3 |
| 20260510075203 | 63 | 53 | 0.0 | 0.0 | 0.00 | 0.01 | 0.00 | 71 | 1012.3 |
| 20260510074705 | 63 | 53 | 0.0 | 0.0 | 0.00 | 0.01 | 0.00 | 71 | 1012.3 |
| 20260510074204 | 63 | 53 | 0.0 | 0.0 | 0.00 | 0.01 | 0.00 | 69 | 1012.3 |
| 20260510073704 | 64 | 53 | 0.0 | 0.0 | 0.00 | 0.01 | 0.00 | 69 | 1012.2 |
| 20260510073204 | 64 | 53 | 0.0 | 0.0 | 0.00 | 0.01 | 0.00 | 69 | 1012.1 |
| 20260510072704 | 64 | 53 | 0.0 | 1.0 | 0.00 | 0.01 | 0.00 | 68 | 1012.1 |
| 20260510071704 | 64 | 298 | 1.0 | 2.0 | 0.00 | 0.01 | 0.00 | 65 | 1012.0 |
| 20260510071204 | 64 | 304 | 2.0 | 3.0 | 0.00 | 0.01 | 0.00 | 66 | 1011.9 |
| 20260510070703 | 64 | 306 | 2.0 | 3.0 | 0.00 | 0.01 | 0.00 | 66 | 1011.8 |
| 20260510070204 | 64 | 295 | 2.0 | 7.0 | 0.00 | 0.01 | 0.00 | 67 | 1011.9 |
| 20260510065704 | 63 | 297 | 4.0 | 5.0 | 0.00 | 0.01 | 0.00 | 69 | 1011.9 |
| 20260510065204 | 62 | 301 | 1.0 | 3.0 | 0.00 | 0.01 | 0.00 | 71 | 1011.7 |
| 20260510064704 | 61 | 294 | 4.0 | 7.0 | 0.00 | 0.01 | 0.00 | 75 | 1012.1 |
| 20260510064203 | 60 | 299 | 3.0 | 6.0 | 0.00 | 0.02 | 0.00 | 81 | 1012.2 |
| 20260510063204 | 60 | 306 | 0.0 | 0.0 | 0.00 | 0.04 | 0.00 | 82 | 1011.4 |
| 20260510062704 | 60 | 306 | 0.0 | 0.0 | 0.00 | 0.06 | 0.00 | 82 | 1011.3 |
| 20260510062205 | 60 | 306 | 0.0 | 0.0 | 0.00 | 0.08 | 0.00 | 82 | 1011.4 |
| 20260510061704 | 60 | 306 | 0.0 | 0.0 | 0.00 | 0.09 | 0.00 | 82 | 1011.4 |
| 20260510060704 | 60 | 306 | 0.0 | 0.0 | 0.00 | 0.14 | 0.00 | 81 | 1011.2 |
| 20260510060204 | 60 | 306 | 0.0 | 0.0 | 0.00 | 0.17 | 0.00 | 81 | 1011.1 |
| 20260510055705 | 60 | 306 | 0.0 | 0.0 | 0.00 | 0.19 | 0.00 | 80 | 1011.0 |
| 20260510055204 | 60 | 306 | 0.0 | 0.0 | 0.00 | 0.23 | 0.00 | 80 | 1011.0 |
| 20260510054704 | 61 | 306 | 0.0 | 0.0 | 0.00 | 0.25 | 0.00 | 80 | 1011.0 |
| 20260510054204 | 61 | 306 | 0.0 | 0.0 | 0.00 | 0.26 | 0.00 | 79 | 1010.9 |
| 20260510053705 | 61 | 310 | 0.0 | 0.0 | 0.00 | 0.26 | 0.00 | 79 | 1010.9 |
| 20260510053204 | 61 | 102 | 0.0 | 0.0 | 0.00 | 0.26 | 0.00 | 78 | 1011.1 |
| 20260510052704 | 61 | 102 | 0.0 | 0.0 | 0.00 | 0.26 | 0.00 | 77 | 1011.0 |
| 20260510052204 | 62 | 102 | 0.0 | 0.0 | 0.00 | 0.26 | 0.00 | 76 | 1011.0 |
| 20260510051704 | 62 | 102 | 0.0 | 0.0 | 0.00 | 0.26 | 0.00 | 76 | 1010.9 |
| 20260510051205 | 62 | 102 | 0.0 | 0.0 | 0.00 | 0.26 | 0.00 | 76 | 1010.9 |
| 20260510050704 | 62 | 102 | 0.0 | 0.0 | 0.00 | 0.26 | 0.00 | 75 | 1010.7 |
| 20260510044204 | 64 | 102 | 0.0 | 0.0 | 0.00 | 0.26 | 0.26 | 72 | 1010.8 |
| 20260510043704 | 64 | 102 | 0.0 | 0.0 | 0.00 | 0.26 | 0.26 | 70 | 1010.8 |
| 20260510043204 | 64 | 102 | 0.0 | 0.0 | 0.00 | 0.26 | 0.26 | 68 | 1010.8 |
| 20260510042704 | 64 | 102 | 0.0 | 0.0 | 0.00 | 0.26 | 0.26 | 66 | 1010.7 |
| 20260510042204 | 65 | 102 | 0.0 | 0.0 | 0.00 | 0.26 | 0.26 | 66 | 1010.7 |
| 20260510041704 | 65 | 102 | 0.0 | 0.0 | 0.00 | 0.26 | 0.26 | 67 | 1010.7 |
| 20260510041204 | 65 | 102 | 0.0 | 0.0 | 0.00 | 0.26 | 0.26 | 65 | 1010.7 |
| 20260510040204 | 66 | 102 | 0.0 | 0.0 | 0.00 | 0.26 | 0.26 | 63 | 1010.6 |
| 20260510035704 | 66 | 102 | 0.0 | 0.0 | 0.00 | 0.26 | 0.26 | 63 | 1010.6 |
| 20260510035205 | 66 | 102 | 0.0 | 0.0 | 0.00 | 0.26 | 0.26 | 63 | 1010.6 |
| 20260510034204 | 67 | 102 | 0.0 | 0.0 | 0.00 | 0.26 | 0.26 | 64 | 1010.7 |
| 20260510033703 | 67 | 102 | 0.0 | 0.0 | 0.00 | 0.26 | 0.26 | 61 | 1010.5 |
| 20260510032704 | 68 | 102 | 0.0 | 0.0 | 0.00 | 0.26 | 0.26 | 58 | 1010.4 |
| 20260510032204 | 68 | 102 | 0.0 | 0.0 | 0.00 | 0.26 | 0.26 | 58 | 1010.5 |
| 20260510031704 | 68 | 102 | 0.0 | 0.0 | 0.00 | 0.26 | 0.26 | 59 | 1010.3 |
| 20260510031204 | 68 | 102 | 0.0 | 0.0 | 0.00 | 0.26 | 0.26 | 58 | 1010.3 |
| 20260510030704 | 68 | 103 | 0.0 | 0.0 | 0.00 | 0.26 | 0.26 | 59 | 1010.2 |
| 20260510030204 | 69 | 91 | 0.0 | 0.0 | 0.00 | 0.26 | 0.26 | 60 | 1010.1 |
| 20260510025704 | 69 | 91 | 0.0 | 0.0 | 0.00 | 0.26 | 0.26 | 58 | 1010.1 |
| 20260510024704 | 69 | 90 | 0.0 | 0.0 | 0.00 | 0.26 | 0.26 | 59 | 1010.2 |
| 20260510024204 | 69 | 127 | 0.0 | 0.0 | 0.00 | 0.26 | 0.26 | 59 | 1010.1 |
| 20260510023704 | 69 | 127 | 0.0 | 0.0 | 0.00 | 0.26 | 0.26 | 60 | 1010.0 |
| 20260510023204 | 69 | 119 | 0.0 | 0.0 | 0.00 | 0.26 | 0.26 | 60 | 1010.0 |
| 20260510022204 | 69 | 119 | 0.0 | 0.0 | 0.00 | 0.26 | 0.26 | 61 | 1009.9 |
| 20260510021704 | 70 | 119 | 0.0 | 0.0 | 0.00 | 0.26 | 0.26 | 62 | 1009.8 |
| 20260510020704 | 70 | 144 | 0.0 | 0.0 | 0.00 | 0.26 | 0.26 | 61 | 1009.6 |
| 20260510020204 | 70 | 228 | 0.0 | 0.0 | 0.00 | 0.26 | 0.26 | 61 | 1009.6 |
| 20260510015705 | 71 | 228 | 0.0 | 0.0 | 0.00 | 0.26 | 0.26 | 61 | 1009.6 |
| 20260510015204 | 71 | 228 | 0.0 | 0.0 | 0.00 | 0.26 | 0.26 | 60 | 1009.5 |
| 20260510014705 | 71 | 228 | 0.0 | 0.0 | 0.00 | 0.26 | 0.26 | 59 | 1009.4 |
| 20260510013705 | 72 | 228 | 0.0 | 0.0 | 0.00 | 0.26 | 0.26 | 58 | 1009.3 |
| 20260510013204 | 73 | 228 | 0.0 | 0.0 | 0.00 | 0.26 | 0.26 | 57 | 1009.3 |
| 20260510012704 | 73 | 228 | 0.0 | 0.0 | 0.00 | 0.26 | 0.26 | 56 | 1009.3 |
| 20260510012204 | 73 | 228 | 0.0 | 0.0 | 0.00 | 0.26 | 0.26 | 56 | 1009.2 |
| 20260510011704 | 74 | 228 | 0.0 | 0.0 | 0.00 | 0.26 | 0.26 | 55 | 1009.2 |
| 20260510011204 | 74 | 228 | 0.0 | 0.0 | 0.00 | 0.26 | 0.26 | 55 | 1009.1 |
| 20260510010705 | 75 | 228 | 0.0 | 0.0 | 0.00 | 0.26 | 0.26 | 54 | 1009.0 |
| 20260510010204 | 75 | 228 | 0.0 | 0.0 | 0.00 | 0.26 | 0.26 | 53 | 1009.0 |
| 20260510005704 | 76 | 228 | 0.0 | 0.0 | 0.00 | 0.26 | 0.26 | 52 | 1008.8 |
| 20260510005204 | 76 | 228 | 0.0 | 1.0 | 0.00 | 0.26 | 0.26 | 52 | 1008.7 |
| 20260510004704 | 77 | 228 | 0.0 | 0.0 | 0.00 | 0.26 | 0.26 | 51 | 1008.7 |
| 20260510004204 | 77 | 228 | 0.0 | 1.0 | 0.00 | 0.26 | 0.26 | 50 | 1008.7 |
| 20260510003704 | 78 | 228 | 0.0 | 1.0 | 0.00 | 0.26 | 0.26 | 49 | 1008.6 |
| 20260510003204 | 78 | 216 | 0.0 | 1.0 | 0.00 | 0.26 | 0.26 | 48 | 1008.6 |
| 20260510002704 | 79 | 216 | 0.0 | 1.0 | 0.00 | 0.26 | 0.26 | 48 | 1008.5 |
| 20260510001704 | 79 | 236 | 0.0 | 3.0 | 0.00 | 0.26 | 0.26 | 47 | 1008.4 |
| 20260510001204 | 79 | 58 | 0.0 | 1.0 | 0.00 | 0.26 | 0.26 | 47 | 1008.4 |
| 20260510000704 | 79 | 58 | 0.0 | 2.0 | 0.00 | 0.26 | 0.26 | 46 | 1008.3 |
| 20260510000204 | 79 | 232 | 2.0 | 5.0 | 0.00 | 0.26 | 0.26 | 46 | 1008.4 |
| 20260509235204 | 79 | 277 | 1.0 | 3.0 | 0.00 | 0.26 | 0.26 | 47 | 1008.3 |
| 20260509234705 | 79 | 270 | 1.0 | 2.0 | 0.00 | 0.26 | 0.26 | 48 | 1008.3 |
| 20260509234204 | 79 | 142 | 2.0 | 6.0 | 0.00 | 0.26 | 0.26 | 47 | 1008.3 |
| 20260509233704 | 79 | 178 | 2.0 | 8.0 | 0.00 | 0.26 | 0.26 | 46 | 1008.3 |
| 20260509232704 | 80 | 185 | 1.0 | 6.0 | 0.00 | 0.26 | 0.26 | 47 | 1008.2 |
| 20260509232205 | 80 | 219 | 1.0 | 5.0 | 0.00 | 0.26 | 0.26 | 47 | 1008.1 |